sensor_id;sensor_type;location;lat;lon;timestamp;temperature;humidity
35607;DHT22;21729;58.392;15.656;2023-03-01T00:01:39;-1.20;99.90
35607;DHT22;21729;58.392;15.656;2023-03-01T00:04:06;-1.20;99.90
35607;DHT22;21729;58.392;15.656;2023-03-01T00:06:35;-1.30;99.90
35607;DHT22;21729;58.392;15.656;2023-03-01T00:09:03;-1.30;99.90
35607;DHT22;21729;58.392;15.656;2023-03-01T00:11:31;-1.20;99.90
35607;DHT22;21729;58.392;15.656;2023-03-01T00:14:00;-1.10;99.90
35607;DHT22;21729;58.392;15.656;2023-03-01T00:16:32;-1.30;99.90
35607;DHT22;21729;58.392;15.656;2023-03-01T00:19:00;-1.30;99.90
35607;DHT22;21729;58.392;15.656;2023-03-01T00:21:27;-1.30;99.90
35607;DHT22;21729;58.392;15.656;2023-03-01T00:23:56;-1.40;99.90
35607;DHT22;21729;58.392;15.656;2023-03-01T00:26:25;-1.40;99.90
35607;DHT22;21729;58.392;15.656;2023-03-01T00:28:53;-1.30;99.90
35607;DHT22;21729;58.392;15.656;2023-03-01T00:31:22;-1.20;99.90
35607;DHT22;21729;58.392;15.656;2023-03-01T00:33:52;-1.40;99.90
35607;DHT22;21729;58.392;15.656;2023-03-01T00:36:23;-1.50;99.90
35607;DHT22;21729;58.392;15.656;2023-03-01T00:38:51;-1.40;99.90
35607;DHT22;21729;58.392;15.656;2023-03-01T00:41:20;-1.50;99.90
35607;DHT22;21729;58.392;15.656;2023-03-01T00:43:52;-1.50;99.90
35607;DHT22;21729;58.392;15.656;2023-03-01T00:46:21;-1.50;99.90
35607;DHT22;21729;58.392;15.656;2023-03-01T00:48:49;-1.50;99.90
35607;DHT22;21729;58.392;15.656;2023-03-01T00:51:17;-1.50;99.90
35607;DHT22;21729;58.392;15.656;2023-03-01T00:53:46;-1.60;99.90
35607;DHT22;21729;58.392;15.656;2023-03-01T00:56:14;-1.70;99.90
35607;DHT22;21729;58.392;15.656;2023-03-01T00:58:43;-1.70;99.90
35607;DHT22;21729;58.392;15.656;2023-03-01T01:01:12;-1.70;99.90
35607;DHT22;21729;58.392;15.656;2023-03-01T01:03:48;-1.40;99.90
35607;DHT22;21729;58.392;15.656;2023-03-01T01:06:16;-1.60;99.90
35607;DHT22;21729;58.392;15.656;2023-03-01T01:08:45;-1.60;99.90
35607;DHT22;21729;58.392;15.656;2023-03-01T01:11:12;-1.60;99.90
35607;DHT22;21729;58.392;15.656;2023-03-01T01:13:40;-1.60;99.90
35607;DHT22;21729;58.392;15.656;2023-03-01T01:16:08;-1.70;99.90
35607;DHT22;21729;58.392;15.656;2023-03-01T01:18:35;-1.70;99.90
35607;DHT22;21729;58.392;15.656;2023-03-01T01:21:07;-1.70;99.90
35607;DHT22;21729;58.392;15.656;2023-03-01T01:23:34;-1.70;99.90
35607;DHT22;21729;58.392;15.656;2023-03-01T01:26:05;-1.30;99.90
35607;DHT22;21729;58.392;15.656;2023-03-01T01:28:33;-1.70;99.90
35607;DHT22;21729;58.392;15.656;2023-03-01T01:31:00;-1.70;99.90
35607;DHT22;21729;58.392;15.656;2023-03-01T01:33:29;-1.70;99.90
35607;DHT22;21729;58.392;15.656;2023-03-01T01:35:56;-1.70;99.90
35607;DHT22;21729;58.392;15.656;2023-03-01T01:38:23;-1.70;99.90
35607;DHT22;21729;58.392;15.656;2023-03-01T01:40:51;-1.70;99.90
35607;DHT22;21729;58.392;15.656;2023-03-01T01:43:20;-1.70;99.90
35607;DHT22;21729;58.392;15.656;2023-03-01T01:45:49;-1.70;99.90
35607;DHT22;21729;58.392;15.656;2023-03-01T01:48:19;-1.80;99.90
35607;DHT22;21729;58.392;15.656;2023-03-01T01:50:54;-1.70;99.90
35607;DHT22;21729;58.392;15.656;2023-03-01T01:53:23;-1.70;99.90
35607;DHT22;21729;58.392;15.656;2023-03-01T01:55:54;-1.80;99.90
35607;DHT22;21729;58.392;15.656;2023-03-01T01:58:24;-1.80;99.90
35607;DHT22;21729;58.392;15.656;2023-03-01T02:00:53;-1.60;99.90
35607;DHT22;21729;58.392;15.656;2023-03-01T02:03:24;-1.80;99.90
35607;DHT22;21729;58.392;15.656;2023-03-01T02:06:00;-1.80;99.90
35607;DHT22;21729;58.392;15.656;2023-03-01T02:08:32;-1.80;99.90
35607;DHT22;21729;58.392;15.656;2023-03-01T02:11:01;-1.90;99.90
35607;DHT22;21729;58.392;15.656;2023-03-01T02:13:30;-1.70;99.90
35607;DHT22;21729;58.392;15.656;2023-03-01T02:15:58;-1.90;99.90
35607;DHT22;21729;58.392;15.656;2023-03-01T02:18:26;-2.00;99.90
35607;DHT22;21729;58.392;15.656;2023-03-01T02:21:03;-2.00;99.90
35607;DHT22;21729;58.392;15.656;2023-03-01T02:23:33;-2.00;99.90
35607;DHT22;21729;58.392;15.656;2023-03-01T02:26:06;-2.00;99.90
35607;DHT22;21729;58.392;15.656;2023-03-01T02:28:39;-2.00;99.90
35607;DHT22;21729;58.392;15.656;2023-03-01T02:31:09;-2.00;99.90
35607;DHT22;21729;58.392;15.656;2023-03-01T02:33:54;-2.00;99.90
35607;DHT22;21729;58.392;15.656;2023-03-01T02:36:25;-2.00;99.90
35607;DHT22;21729;58.392;15.656;2023-03-01T02:38:57;-2.10;99.90
35607;DHT22;21729;58.392;15.656;2023-03-01T02:41:26;-2.00;99.90
35607;DHT22;21729;58.392;15.656;2023-03-01T02:43:56;-2.10;99.90
35607;DHT22;21729;58.392;15.656;2023-03-01T02:46:25;-2.10;99.90
35607;DHT22;21729;58.392;15.656;2023-03-01T02:48:54;-2.20;99.90
35607;DHT22;21729;58.392;15.656;2023-03-01T02:51:38;-2.20;99.90
35607;DHT22;21729;58.392;15.656;2023-03-01T02:54:18;-2.20;99.90
35607;DHT22;21729;58.392;15.656;2023-03-01T02:56:49;-2.30;99.90
35607;DHT22;21729;58.392;15.656;2023-03-01T02:59:20;-2.30;99.90
35607;DHT22;21729;58.392;15.656;2023-03-01T03:01:48;-1.90;99.90
35607;DHT22;21729;58.392;15.656;2023-03-01T03:04:18;-2.20;99.90
35607;DHT22;21729;58.392;15.656;2023-03-01T03:06:47;-2.20;99.90
35607;DHT22;21729;58.392;15.656;2023-03-01T03:09:16;-2.20;99.90
35607;DHT22;21729;58.392;15.656;2023-03-01T03:11:43;-2.20;99.90
35607;DHT22;21729;58.392;15.656;2023-03-01T03:14:12;-2.30;99.90
35607;DHT22;21729;58.392;15.656;2023-03-01T03:16:43;-2.30;99.90
35607;DHT22;21729;58.392;15.656;2023-03-01T03:19:10;-2.30;99.90
35607;DHT22;21729;58.392;15.656;2023-03-01T03:21:37;-2.00;99.90
35607;DHT22;21729;58.392;15.656;2023-03-01T03:24:05;-2.30;99.90
35607;DHT22;21729;58.392;15.656;2023-03-01T03:26:32;-2.30;99.90
35607;DHT22;21729;58.392;15.656;2023-03-01T03:28:59;-2.30;99.90
35607;DHT22;21729;58.392;15.656;2023-03-01T03:31:27;-2.30;99.90
35607;DHT22;21729;58.392;15.656;2023-03-01T03:33:55;-2.30;99.90
35607;DHT22;21729;58.392;15.656;2023-03-01T03:36:24;-2.40;99.90
35607;DHT22;21729;58.392;15.656;2023-03-01T03:38:51;-2.40;99.90
35607;DHT22;21729;58.392;15.656;2023-03-01T03:41:18;-2.10;99.90
35607;DHT22;21729;58.392;15.656;2023-03-01T03:43:46;-2.40;99.90
35607;DHT22;21729;58.392;15.656;2023-03-01T03:46:14;-2.40;99.90
35607;DHT22;21729;58.392;15.656;2023-03-01T03:48:44;-2.40;99.90
35607;DHT22;21729;58.392;15.656;2023-03-01T03:51:14;-2.40;99.90
35607;DHT22;21729;58.392;15.656;2023-03-01T03:53:41;-2.40;99.90
35607;DHT22;21729;58.392;15.656;2023-03-01T03:56:09;-2.40;99.90
35607;DHT22;21729;58.392;15.656;2023-03-01T03:58:37;-2.40;99.90
35607;DHT22;21729;58.392;15.656;2023-03-01T04:01:04;-2.40;99.90
35607;DHT22;21729;58.392;15.656;2023-03-01T04:03:32;-2.30;1.00
35607;DHT22;21729;58.392;15.656;2023-03-01T04:06:01;-2.30;1.00
35607;DHT22;21729;58.392;15.656;2023-03-01T04:08:30;-2.30;1.00
35607;DHT22;21729;58.392;15.656;2023-03-01T04:10:59;-2.30;1.00
35607;DHT22;21729;58.392;15.656;2023-03-01T04:13:47;-2.10;1.00
35607;DHT22;21729;58.392;15.656;2023-03-01T04:16:14;-2.30;1.00
35607;DHT22;21729;58.392;15.656;2023-03-01T04:18:41;-2.30;1.00
35607;DHT22;21729;58.392;15.656;2023-03-01T04:21:08;-2.40;1.00
35607;DHT22;21729;58.392;15.656;2023-03-01T04:23:38;-2.40;1.00
35607;DHT22;21729;58.392;15.656;2023-03-01T04:26:06;-2.40;1.00
35607;DHT22;21729;58.392;15.656;2023-03-01T04:28:35;-2.50;1.00
35607;DHT22;21729;58.392;15.656;2023-03-01T04:31:05;-2.50;1.00
35607;DHT22;21729;58.392;15.656;2023-03-01T04:33:39;-2.60;1.40
35607;DHT22;21729;58.392;15.656;2023-03-01T04:36:08;-2.50;1.00
35607;DHT22;21729;58.392;15.656;2023-03-01T04:38:36;-2.60;99.90
35607;DHT22;21729;58.392;15.656;2023-03-01T04:41:06;-2.60;99.90
35607;DHT22;21729;58.392;15.656;2023-03-01T04:43:34;-2.60;1.00
35607;DHT22;21729;58.392;15.656;2023-03-01T04:46:02;-2.60;1.00
35607;DHT22;21729;58.392;15.656;2023-03-01T04:48:30;-2.70;1.00
35607;DHT22;21729;58.392;15.656;2023-03-01T04:50:58;-2.60;1.00
35607;DHT22;21729;58.392;15.656;2023-03-01T04:53:26;-2.60;1.00
35607;DHT22;21729;58.392;15.656;2023-03-01T04:55:54;-2.60;1.00
35607;DHT22;21729;58.392;15.656;2023-03-01T04:58:23;-2.60;1.00
35607;DHT22;21729;58.392;15.656;2023-03-01T05:00:50;-2.70;1.00
35607;DHT22;21729;58.392;15.656;2023-03-01T05:03:17;-2.70;1.00
35607;DHT22;21729;58.392;15.656;2023-03-01T05:05:45;-2.80;1.00
35607;DHT22;21729;58.392;15.656;2023-03-01T05:08:13;-2.80;1.00
35607;DHT22;21729;58.392;15.656;2023-03-01T05:10:45;-2.80;1.00
35607;DHT22;21729;58.392;15.656;2023-03-01T05:13:13;-2.70;1.00
35607;DHT22;21729;58.392;15.656;2023-03-01T05:15:48;-2.70;1.00
35607;DHT22;21729;58.392;15.656;2023-03-01T05:18:20;-2.80;1.00
35607;DHT22;21729;58.392;15.656;2023-03-01T05:20:47;-2.80;1.00
35607;DHT22;21729;58.392;15.656;2023-03-01T05:23:14;-2.90;1.00
35607;DHT22;21729;58.392;15.656;2023-03-01T05:25:41;-2.90;1.00
35607;DHT22;21729;58.392;15.656;2023-03-01T05:28:11;-2.90;1.00
35607;DHT22;21729;58.392;15.656;2023-03-01T05:30:38;-2.80;1.00
35607;DHT22;21729;58.392;15.656;2023-03-01T05:33:08;-2.80;1.00
35607;DHT22;21729;58.392;15.656;2023-03-01T05:35:41;-2.80;1.00
35607;DHT22;21729;58.392;15.656;2023-03-01T05:38:09;-2.90;1.00
35607;DHT22;21729;58.392;15.656;2023-03-01T05:40:39;-2.90;1.00
35607;DHT22;21729;58.392;15.656;2023-03-01T05:43:06;-3.00;1.00
35607;DHT22;21729;58.392;15.656;2023-03-01T05:45:36;-3.00;1.00
35607;DHT22;21729;58.392;15.656;2023-03-01T05:48:03;-3.00;1.00
35607;DHT22;21729;58.392;15.656;2023-03-01T05:50:35;-3.00;1.00
35607;DHT22;21729;58.392;15.656;2023-03-01T05:53:03;-3.00;1.00
35607;DHT22;21729;58.392;15.656;2023-03-01T05:55:31;-3.00;1.00
35607;DHT22;21729;58.392;15.656;2023-03-01T05:57:59;-3.10;1.00
35607;DHT22;21729;58.392;15.656;2023-03-01T06:00:27;-3.10;1.00
35607;DHT22;21729;58.392;15.656;2023-03-01T06:02:56;-3.10;1.00
35607;DHT22;21729;58.392;15.656;2023-03-01T06:05:24;-3.10;1.00
35607;DHT22;21729;58.392;15.656;2023-03-01T06:07:53;-3.00;1.00
35607;DHT22;21729;58.392;15.656;2023-03-01T06:10:22;-3.00;1.00
35607;DHT22;21729;58.392;15.656;2023-03-01T06:12:49;-3.00;1.00
35607;DHT22;21729;58.392;15.656;2023-03-01T06:15:16;-3.00;1.00
35607;DHT22;21729;58.392;15.656;2023-03-01T06:17:46;-3.00;1.00
35607;DHT22;21729;58.392;15.656;2023-03-01T06:20:14;-2.70;1.00
35607;DHT22;21729;58.392;15.656;2023-03-01T06:22:42;-2.90;1.00
35607;DHT22;21729;58.392;15.656;2023-03-01T06:25:12;-2.90;1.00
35607;DHT22;21729;58.392;15.656;2023-03-01T06:27:40;-3.00;1.00
35607;DHT22;21729;58.392;15.656;2023-03-01T06:30:09;-2.80;1.00
35607;DHT22;21729;58.392;15.656;2023-03-01T06:32:36;-2.80;1.00
35607;DHT22;21729;58.392;15.656;2023-03-01T06:35:08;-2.70;1.00
35607;DHT22;21729;58.392;15.656;2023-03-01T06:37:36;-2.60;1.00
35607;DHT22;21729;58.392;15.656;2023-03-01T06:40:03;-2.60;1.00
35607;DHT22;21729;58.392;15.656;2023-03-01T06:42:35;-2.60;1.00
35607;DHT22;21729;58.392;15.656;2023-03-01T06:45:02;-2.60;1.00
35607;DHT22;21729;58.392;15.656;2023-03-01T06:47:29;-2.50;1.00
35607;DHT22;21729;58.392;15.656;2023-03-01T06:49:57;-2.40;1.00
35607;DHT22;21729;58.392;15.656;2023-03-01T06:52:24;-2.40;1.00
35607;DHT22;21729;58.392;15.656;2023-03-01T06:54:51;-2.50;1.00
35607;DHT22;21729;58.392;15.656;2023-03-01T06:57:18;-2.20;1.00
35607;DHT22;21729;58.392;15.656;2023-03-01T06:59:48;-2.10;1.00
35607;DHT22;21729;58.392;15.656;2023-03-01T07:02:15;-2.00;1.00
35607;DHT22;21729;58.392;15.656;2023-03-01T07:04:42;-1.90;1.00
35607;DHT22;21729;58.392;15.656;2023-03-01T07:07:10;-1.80;1.00
35607;DHT22;21729;58.392;15.656;2023-03-01T07:09:37;-1.40;1.00
35607;DHT22;21729;58.392;15.656;2023-03-01T07:12:05;-1.60;1.00
35607;DHT22;21729;58.392;15.656;2023-03-01T07:14:32;-1.40;99.90
35607;DHT22;21729;58.392;15.656;2023-03-01T07:17:01;-1.30;99.90
35607;DHT22;21729;58.392;15.656;2023-03-01T07:19:28;-1.20;99.90
35607;DHT22;21729;58.392;15.656;2023-03-01T07:21:55;-1.10;99.90
35607;DHT22;21729;58.392;15.656;2023-03-01T07:24:22;-1.00;99.90
35607;DHT22;21729;58.392;15.656;2023-03-01T07:26:49;-0.80;99.90
35607;DHT22;21729;58.392;15.656;2023-03-01T07:29:17;-0.70;99.90
35607;DHT22;21729;58.392;15.656;2023-03-01T07:31:44;-0.70;99.90
35607;DHT22;21729;58.392;15.656;2023-03-01T07:34:13;-0.50;99.90
35607;DHT22;21729;58.392;15.656;2023-03-01T07:36:40;-0.50;99.90
35607;DHT22;21729;58.392;15.656;2023-03-01T07:39:09;-0.30;99.90
35607;DHT22;21729;58.392;15.656;2023-03-01T07:41:36;-0.20;99.90
35607;DHT22;21729;58.392;15.656;2023-03-01T07:44:04;0.00;99.90
35607;DHT22;21729;58.392;15.656;2023-03-01T07:46:31;0.20;99.90
35607;DHT22;21729;58.392;15.656;2023-03-01T07:48:58;0.30;99.90
35607;DHT22;21729;58.392;15.656;2023-03-01T07:51:26;0.60;99.90
35607;DHT22;21729;58.392;15.656;2023-03-01T07:53:54;0.70;99.90
35607;DHT22;21729;58.392;15.656;2023-03-01T07:56:22;1.00;99.90
35607;DHT22;21729;58.392;15.656;2023-03-01T07:58:49;1.10;40.70
35607;DHT22;21729;58.392;15.656;2023-03-01T08:01:17;1.30;38.70
35607;DHT22;21729;58.392;15.656;2023-03-01T08:03:45;1.50;1.00
35607;DHT22;21729;58.392;15.656;2023-03-01T08:06:14;1.70;1.00
35607;DHT22;21729;58.392;15.656;2023-03-01T08:08:43;1.80;1.00
35607;DHT22;21729;58.392;15.656;2023-03-01T08:11:11;2.00;1.00
35607;DHT22;21729;58.392;15.656;2023-03-01T08:13:39;2.10;1.00
35607;DHT22;21729;58.392;15.656;2023-03-01T08:16:08;2.30;1.00
35607;DHT22;21729;58.392;15.656;2023-03-01T08:18:35;2.40;1.00
35607;DHT22;21729;58.392;15.656;2023-03-01T08:21:03;2.50;1.00
35607;DHT22;21729;58.392;15.656;2023-03-01T08:23:31;4.90;99.90
35607;DHT22;21729;58.392;15.656;2023-03-01T08:26:09;6.90;99.90
35607;DHT22;21729;58.392;15.656;2023-03-01T08:28:37;7.10;99.90
35607;DHT22;21729;58.392;15.656;2023-03-01T08:31:14;6.30;99.90
35607;DHT22;21729;58.392;15.656;2023-03-01T08:33:41;6.10;99.90
35607;DHT22;21729;58.392;15.656;2023-03-01T08:36:08;5.40;99.90
35607;DHT22;21729;58.392;15.656;2023-03-01T08:38:36;5.30;99.90
35607;DHT22;21729;58.392;15.656;2023-03-01T08:41:03;5.00;99.90
35607;DHT22;21729;58.392;15.656;2023-03-01T08:43:32;4.70;99.90
35607;DHT22;21729;58.392;15.656;2023-03-01T08:45:59;4.90;99.90
35607;DHT22;21729;58.392;15.656;2023-03-01T08:48:27;4.80;99.90
35607;DHT22;21729;58.392;15.656;2023-03-01T08:50:55;4.50;99.90
35607;DHT22;21729;58.392;15.656;2023-03-01T08:53:22;4.90;99.90
35607;DHT22;21729;58.392;15.656;2023-03-01T08:55:49;5.00;99.90
35607;DHT22;21729;58.392;15.656;2023-03-01T08:58:16;5.00;99.90
35607;DHT22;21729;58.392;15.656;2023-03-01T09:00:45;5.00;99.90
35607;DHT22;21729;58.392;15.656;2023-03-01T09:03:12;5.00;99.90
35607;DHT22;21729;58.392;15.656;2023-03-01T09:05:39;5.20;99.90
35607;DHT22;21729;58.392;15.656;2023-03-01T09:08:06;5.20;99.90
35607;DHT22;21729;58.392;15.656;2023-03-01T09:10:37;5.20;99.90
35607;DHT22;21729;58.392;15.656;2023-03-01T09:13:05;5.10;99.90
35607;DHT22;21729;58.392;15.656;2023-03-01T09:15:32;5.00;99.90
35607;DHT22;21729;58.392;15.656;2023-03-01T09:18:00;5.40;99.90
35607;DHT22;21729;58.392;15.656;2023-03-01T09:20:28;5.50;92.90
35607;DHT22;21729;58.392;15.656;2023-03-01T09:22:55;5.50;99.90
35607;DHT22;21729;58.392;15.656;2023-03-01T09:25:22;5.60;95.70
35607;DHT22;21729;58.392;15.656;2023-03-01T09:27:51;5.80;92.30
35607;DHT22;21729;58.392;15.656;2023-03-01T09:30:18;5.80;34.20
35607;DHT22;21729;58.392;15.656;2023-03-01T09:32:45;6.10;29.30
35607;DHT22;21729;58.392;15.656;2023-03-01T09:35:14;6.30;28.40
35607;DHT22;21729;58.392;15.656;2023-03-01T09:37:41;6.40;28.90
35607;DHT22;21729;58.392;15.656;2023-03-01T09:40:14;6.80;21.30
35607;DHT22;21729;58.392;15.656;2023-03-01T09:42:48;6.90;1.00
35607;DHT22;21729;58.392;15.656;2023-03-01T09:45:26;7.10;1.00
35607;DHT22;21729;58.392;15.656;2023-03-01T09:47:55;7.40;1.00
35607;DHT22;21729;58.392;15.656;2023-03-01T09:50:27;7.70;1.00
35607;DHT22;21729;58.392;15.656;2023-03-01T09:53:01;8.20;1.00
35607;DHT22;21729;58.392;15.656;2023-03-01T09:55:32;8.60;1.00
35607;DHT22;21729;58.392;15.656;2023-03-01T09:58:06;9.20;1.00
35607;DHT22;21729;58.392;15.656;2023-03-01T10:00:42;9.70;1.00
35607;DHT22;21729;58.392;15.656;2023-03-01T10:03:16;10.20;1.00
35607;DHT22;21729;58.392;15.656;2023-03-01T10:05:54;10.70;1.00
35607;DHT22;21729;58.392;15.656;2023-03-01T10:08:36;11.20;1.00
35607;DHT22;21729;58.392;15.656;2023-03-01T10:11:05;11.70;1.00
35607;DHT22;21729;58.392;15.656;2023-03-01T10:13:47;12.40;1.00
35607;DHT22;21729;58.392;15.656;2023-03-01T10:16:22;12.60;1.00
35607;DHT22;21729;58.392;15.656;2023-03-01T10:18:55;12.30;1.00
35607;DHT22;21729;58.392;15.656;2023-03-01T10:21:27;12.60;1.00
35607;DHT22;21729;58.392;15.656;2023-03-01T10:23:55;12.80;1.00
35607;DHT22;21729;58.392;15.656;2023-03-01T10:26:41;12.70;1.00
35607;DHT22;21729;58.392;15.656;2023-03-01T10:29:12;12.60;1.00
35607;DHT22;21729;58.392;15.656;2023-03-01T10:31:43;11.90;1.00
35607;DHT22;21729;58.392;15.656;2023-03-01T10:34:13;12.10;1.00
35607;DHT22;21729;58.392;15.656;2023-03-01T10:36:42;10.70;1.00
35607;DHT22;21729;58.392;15.656;2023-03-01T10:39:16;8.40;1.00
35607;DHT22;21729;58.392;15.656;2023-03-01T10:41:55;7.60;1.00
35607;DHT22;21729;58.392;15.656;2023-03-01T10:44:44;7.20;1.00
35607;DHT22;21729;58.392;15.656;2023-03-01T10:47:18;6.80;1.00
35607;DHT22;21729;58.392;15.656;2023-03-01T10:49:58;6.70;1.00
35607;DHT22;21729;58.392;15.656;2023-03-01T10:52:34;6.70;1.00
35607;DHT22;21729;58.392;15.656;2023-03-01T10:55:04;6.60;1.00
35607;DHT22;21729;58.392;15.656;2023-03-01T10:57:45;6.20;1.00
35607;DHT22;21729;58.392;15.656;2023-03-01T11:00:21;6.10;1.00
35607;DHT22;21729;58.392;15.656;2023-03-01T11:02:50;5.90;1.00
35607;DHT22;21729;58.392;15.656;2023-03-01T11:05:23;5.90;1.00
35607;DHT22;21729;58.392;15.656;2023-03-01T11:07:54;5.90;1.00
35607;DHT22;21729;58.392;15.656;2023-03-01T11:10:23;5.80;1.00
35607;DHT22;21729;58.392;15.656;2023-03-01T11:12:51;5.90;1.00
35607;DHT22;21729;58.392;15.656;2023-03-01T11:15:25;5.90;2.10
35607;DHT22;21729;58.392;15.656;2023-03-01T11:17:53;5.90;1.00
35607;DHT22;21729;58.392;15.656;2023-03-01T11:20:26;5.90;1.00
35607;DHT22;21729;58.392;15.656;2023-03-01T11:22:57;5.90;1.00
35607;DHT22;21729;58.392;15.656;2023-03-01T11:25:29;6.10;1.00
35607;DHT22;21729;58.392;15.656;2023-03-01T11:27:59;6.00;1.00
35607;DHT22;21729;58.392;15.656;2023-03-01T11:30:32;6.20;1.00
35607;DHT22;21729;58.392;15.656;2023-03-01T11:33:13;6.10;1.00
35607;DHT22;21729;58.392;15.656;2023-03-01T11:35:47;6.30;7.70
35607;DHT22;21729;58.392;15.656;2023-03-01T11:38:22;6.40;1.00
35607;DHT22;21729;58.392;15.656;2023-03-01T11:40:54;6.40;1.00
35607;DHT22;21729;58.392;15.656;2023-03-01T11:43:31;6.50;1.00
35607;DHT22;21729;58.392;15.656;2023-03-01T11:46:28;6.60;1.00
35607;DHT22;21729;58.392;15.656;2023-03-01T11:49:04;6.60;1.00
35607;DHT22;21729;58.392;15.656;2023-03-01T11:51:42;6.50;1.00
35607;DHT22;21729;58.392;15.656;2023-03-01T11:54:30;6.40;1.00
35607;DHT22;21729;58.392;15.656;2023-03-01T11:57:04;6.60;2.10
35607;DHT22;21729;58.392;15.656;2023-03-01T11:59:53;6.40;1.00
35607;DHT22;21729;58.392;15.656;2023-03-01T12:06:01;6.60;1.00
35607;DHT22;21729;58.392;15.656;2023-03-01T12:08:35;6.60;1.00
35607;DHT22;21729;58.392;15.656;2023-03-01T12:11:13;6.70;1.00
35607;DHT22;21729;58.392;15.656;2023-03-01T12:14:11;6.70;1.00
35607;DHT22;21729;58.392;15.656;2023-03-01T12:17:04;6.60;1.00
35607;DHT22;21729;58.392;15.656;2023-03-01T12:19:58;6.80;1.00
35607;DHT22;21729;58.392;15.656;2023-03-01T12:22:30;6.80;1.00
35607;DHT22;21729;58.392;15.656;2023-03-01T12:25:17;6.80;1.00
35607;DHT22;21729;58.392;15.656;2023-03-01T12:28:06;6.90;1.00
35607;DHT22;21729;58.392;15.656;2023-03-01T12:30:46;6.80;1.00
35607;DHT22;21729;58.392;15.656;2023-03-01T12:33:22;6.80;1.00
35607;DHT22;21729;58.392;15.656;2023-03-01T12:39:08;6.80;1.00
35607;DHT22;21729;58.392;15.656;2023-03-01T12:41:49;6.90;1.00
35607;DHT22;21729;58.392;15.656;2023-03-01T12:44:42;7.00;1.00
35607;DHT22;21729;58.392;15.656;2023-03-01T12:47:23;6.90;1.00
35607;DHT22;21729;58.392;15.656;2023-03-01T12:49:57;6.90;1.00
35607;DHT22;21729;58.392;15.656;2023-03-01T12:52:33;6.80;1.00
35607;DHT22;21729;58.392;15.656;2023-03-01T12:55:08;6.70;1.00
35607;DHT22;21729;58.392;15.656;2023-03-01T12:57:46;6.70;1.00
35607;DHT22;21729;58.392;15.656;2023-03-01T13:00:26;6.60;1.00
35607;DHT22;21729;58.392;15.656;2023-03-01T13:02:58;6.50;1.00
35607;DHT22;21729;58.392;15.656;2023-03-01T13:05:35;6.70;1.00
35607;DHT22;21729;58.392;15.656;2023-03-01T13:08:08;6.50;1.00
35607;DHT22;21729;58.392;15.656;2023-03-01T13:10:42;6.50;1.00
35607;DHT22;21729;58.392;15.656;2023-03-01T13:13:19;6.40;1.00
35607;DHT22;21729;58.392;15.656;2023-03-01T13:15:48;6.30;1.00
35607;DHT22;21729;58.392;15.656;2023-03-01T13:18:30;6.30;1.00
35607;DHT22;21729;58.392;15.656;2023-03-01T13:21:02;6.30;1.00
35607;DHT22;21729;58.392;15.656;2023-03-01T13:23:33;6.30;1.00
35607;DHT22;21729;58.392;15.656;2023-03-01T13:26:06;6.20;1.00
35607;DHT22;21729;58.392;15.656;2023-03-01T13:31:57;6.10;8.20
35607;DHT22;21729;58.392;15.656;2023-03-01T13:34:45;6.10;13.90
35607;DHT22;21729;58.392;15.656;2023-03-01T13:40:05;6.10;11.40
35607;DHT22;21729;58.392;15.656;2023-03-01T13:42:52;6.10;14.70
35607;DHT22;21729;58.392;15.656;2023-03-01T13:45:23;6.10;13.70
35607;DHT22;21729;58.392;15.656;2023-03-01T13:47:56;6.10;1.00
35607;DHT22;21729;58.392;15.656;2023-03-01T13:50:27;6.10;6.80
35607;DHT22;21729;58.392;15.656;2023-03-01T13:52:57;6.10;12.50
35607;DHT22;21729;58.392;15.656;2023-03-01T13:55:30;6.00;18.30
35607;DHT22;21729;58.392;15.656;2023-03-01T13:58:01;6.00;11.30
35607;DHT22;21729;58.392;15.656;2023-03-01T14:00:34;6.00;6.90
35607;DHT22;21729;58.392;15.656;2023-03-01T14:03:11;5.90;16.00
35607;DHT22;21729;58.392;15.656;2023-03-01T14:05:40;5.90;9.90
35607;DHT22;21729;58.392;15.656;2023-03-01T14:08:20;5.90;13.20
35607;DHT22;21729;58.392;15.656;2023-03-01T14:11:01;5.90;25.70
35607;DHT22;21729;58.392;15.656;2023-03-01T14:13:39;5.90;19.10
35607;DHT22;21729;58.392;15.656;2023-03-01T14:16:20;5.90;33.60
35607;DHT22;21729;58.392;15.656;2023-03-01T14:18:58;5.90;22.80
35607;DHT22;21729;58.392;15.656;2023-03-01T14:21:29;6.00;28.10
35607;DHT22;21729;58.392;15.656;2023-03-01T14:23:57;6.00;17.00
35607;DHT22;21729;58.392;15.656;2023-03-01T14:26:25;6.00;26.50
35607;DHT22;21729;58.392;15.656;2023-03-01T14:28:52;6.00;15.30
35607;DHT22;21729;58.392;15.656;2023-03-01T14:31:36;6.00;21.30
35607;DHT22;21729;58.392;15.656;2023-03-01T14:34:06;6.00;24.60
35607;DHT22;21729;58.392;15.656;2023-03-01T14:36:34;5.90;26.50
35607;DHT22;21729;58.392;15.656;2023-03-01T14:39:02;5.70;69.60
35607;DHT22;21729;58.392;15.656;2023-03-01T14:41:42;5.80;54.90
35607;DHT22;21729;58.392;15.656;2023-03-01T14:44:15;5.80;52.00
35607;DHT22;21729;58.392;15.656;2023-03-01T14:46:45;5.80;55.80
35607;DHT22;21729;58.392;15.656;2023-03-01T14:49:15;5.70;56.40
35607;DHT22;21729;58.392;15.656;2023-03-01T14:51:50;5.60;73.10
35607;DHT22;21729;58.392;15.656;2023-03-01T14:54:24;5.70;67.40
35607;DHT22;21729;58.392;15.656;2023-03-01T14:56:53;5.50;77.80
35607;DHT22;21729;58.392;15.656;2023-03-01T14:59:22;5.60;59.10
35607;DHT22;21729;58.392;15.656;2023-03-01T15:01:51;5.60;75.50
35607;DHT22;21729;58.392;15.656;2023-03-01T15:04:21;5.50;88.30
35607;DHT22;21729;58.392;15.656;2023-03-01T15:06:51;5.40;67.20
35607;DHT22;21729;58.392;15.656;2023-03-01T15:09:19;5.40;77.50
35607;DHT22;21729;58.392;15.656;2023-03-01T15:11:46;5.40;76.40
35607;DHT22;21729;58.392;15.656;2023-03-01T15:14:38;5.30;78.40
35607;DHT22;21729;58.392;15.656;2023-03-01T15:17:23;5.20;74.60
35607;DHT22;21729;58.392;15.656;2023-03-01T15:19:55;5.20;99.10
35607;DHT22;21729;58.392;15.656;2023-03-01T15:22:24;5.10;99.90
35607;DHT22;21729;58.392;15.656;2023-03-01T15:24:53;5.10;99.90
35607;DHT22;21729;58.392;15.656;2023-03-01T15:27:22;5.10;99.90
35607;DHT22;21729;58.392;15.656;2023-03-01T15:29:51;5.10;98.40
35607;DHT22;21729;58.392;15.656;2023-03-01T15:32:28;5.10;98.40
35607;DHT22;21729;58.392;15.656;2023-03-01T15:34:57;5.10;99.90
35607;DHT22;21729;58.392;15.656;2023-03-01T15:37:39;5.10;99.90
35607;DHT22;21729;58.392;15.656;2023-03-01T15:40:19;5.00;99.90
35607;DHT22;21729;58.392;15.656;2023-03-01T15:42:47;4.90;99.90
35607;DHT22;21729;58.392;15.656;2023-03-01T15:45:22;4.90;99.90
35607;DHT22;21729;58.392;15.656;2023-03-01T15:47:52;4.80;99.90
35607;DHT22;21729;58.392;15.656;2023-03-01T15:50:24;4.80;99.90
35607;DHT22;21729;58.392;15.656;2023-03-01T15:52:52;4.70;99.90
35607;DHT22;21729;58.392;15.656;2023-03-01T15:55:20;4.70;99.90
35607;DHT22;21729;58.392;15.656;2023-03-01T15:57:48;4.70;99.90
35607;DHT22;21729;58.392;15.656;2023-03-01T16:00:17;4.60;99.90
35607;DHT22;21729;58.392;15.656;2023-03-01T16:02:44;4.50;99.90
35607;DHT22;21729;58.392;15.656;2023-03-01T16:05:20;4.40;99.90
35607;DHT22;21729;58.392;15.656;2023-03-01T16:07:50;4.30;99.90